createdAt,value
2017-07-04T00:01:00.256Z,21.10
2017-07-04T00:03:28.507Z,21.10
2017-07-04T00:05:57.581Z,20.90
2017-07-04T00:08:25.841Z,20.90
2017-07-04T00:10:54.073Z,20.90
2017-07-04T00:13:23.086Z,20.80
2017-07-04T00:15:51.382Z,20.80
2017-07-04T00:18:19.633Z,20.80
2017-07-04T00:20:47.869Z,20.70
2017-07-04T00:23:16.932Z,20.80
2017-07-04T00:25:45.223Z,20.70
2017-07-04T00:28:13.453Z,20.70
2017-07-04T00:30:41.878Z,20.70
2017-07-04T00:33:10.145Z,20.60
2017-07-04T00:35:38.385Z,20.60
2017-07-04T00:38:06.694Z,20.60
2017-07-04T00:40:34.995Z,20.60
2017-07-04T00:43:03.233Z,20.60
2017-07-04T00:45:31.468Z,20.60
2017-07-04T00:47:59.753Z,20.50
2017-07-04T00:50:27.990Z,20.60
2017-07-04T00:52:56.317Z,20.60
2017-07-04T00:55:24.597Z,20.50
2017-07-04T00:57:52.986Z,20.50
2017-07-04T01:00:21.241Z,20.40
2017-07-04T01:02:49.479Z,20.50
2017-07-04T01:05:18.562Z,20.50
2017-07-04T01:07:46.797Z,20.50
2017-07-04T01:10:15.049Z,20.60
2017-07-04T01:12:43.293Z,20.60
2017-07-04T01:15:11.621Z,20.50
2017-07-04T01:17:39.926Z,20.50
2017-07-04T01:20:08.284Z,20.40
2017-07-04T01:22:36.564Z,20.40
2017-07-04T01:25:04.808Z,20.40
2017-07-04T01:27:33.041Z,20.40
2017-07-04T01:30:01.394Z,20.30
2017-07-04T01:32:29.616Z,20.30
2017-07-04T01:34:58.636Z,20.20
2017-07-04T01:37:26.919Z,20.20
2017-07-04T01:39:55.226Z,20.20
2017-07-04T01:42:23.573Z,20.20
2017-07-04T01:44:51.853Z,20.10
2017-07-04T01:47:20.165Z,20.10
2017-07-04T01:49:48.445Z,20.10
2017-07-04T01:52:16.680Z,20.00
2017-07-04T01:54:44.985Z,20.10
2017-07-04T01:57:13.242Z,20.00
2017-07-04T01:59:41.473Z,20.00
2017-07-04T02:02:10.595Z,20.10
2017-07-04T02:04:39.310Z,20.10
2017-07-04T02:07:07.562Z,20.00
2017-07-04T02:09:35.789Z,20.00
2017-07-04T02:12:04.809Z,20.00
2017-07-04T02:14:33.049Z,20.00
2017-07-04T02:17:01.290Z,20.00
2017-07-04T02:19:29.529Z,20.10
2017-07-04T02:21:57.880Z,20.10
2017-07-04T02:24:26.881Z,20.00
2017-07-04T02:26:55.903Z,19.90
2017-07-04T02:29:24.201Z,19.90
2017-07-04T02:31:52.453Z,19.90
2017-07-04T02:34:20.685Z,19.80
2017-07-04T02:36:49.716Z,19.70
2017-07-04T02:39:17.948Z,19.70
2017-07-04T02:41:46.207Z,19.70
2017-07-04T02:44:14.443Z,19.70
2017-07-04T02:46:42.681Z,19.70
2017-07-04T02:49:10.961Z,19.80
2017-07-04T02:51:39.285Z,19.90
2017-07-04T02:54:07.561Z,19.90
2017-07-04T02:56:36.624Z,20.00
2017-07-04T02:59:05.657Z,20.00
2017-07-04T03:01:33.961Z,20.00
2017-07-04T03:04:02.211Z,20.00
2017-07-04T03:06:30.441Z,20.00
2017-07-04T03:08:59.467Z,20.10
2017-07-04T03:11:27.709Z,20.00
2017-07-04T03:13:56.836Z,20.00
2017-07-04T03:16:25.159Z,20.00
2017-07-04T03:18:53.402Z,20.10
2017-07-04T03:21:21.637Z,20.10
2017-07-04T03:23:49.945Z,20.00
2017-07-04T03:26:18.222Z,20.10
2017-07-04T03:28:46.597Z,20.00
2017-07-04T03:31:14.830Z,20.00
2017-07-04T03:33:43.855Z,20.00
2017-07-04T03:36:12.105Z,20.00
2017-07-04T03:38:41.121Z,20.00
2017-07-04T03:41:09.416Z,20.00
2017-07-04T03:43:37.793Z,20.00
2017-07-04T03:46:06.030Z,20.10
2017-07-04T03:48:34.330Z,20.00
2017-07-04T03:51:02.587Z,20.00
2017-07-04T03:53:30.894Z,20.00
2017-07-04T03:55:59.164Z,20.00
2017-07-04T03:58:27.470Z,20.00
2017-07-04T04:03:30.435Z,20.10
2017-07-04T04:05:58.686Z,20.10
2017-07-04T04:08:26.918Z,20.20
2017-07-04T04:10:55.217Z,20.10
2017-07-04T04:13:23.502Z,20.10
2017-07-04T04:15:51.811Z,20.10
2017-07-04T04:18:20.125Z,20.10
2017-07-04T04:20:48.373Z,20.10
2017-07-04T04:23:16.645Z,20.10
2017-07-04T04:25:44.921Z,20.10
2017-07-04T04:28:13.181Z,20.10
2017-07-04T04:30:41.469Z,20.10
2017-07-04T04:33:09.777Z,20.10
2017-07-04T04:35:38.021Z,20.10
2017-07-04T04:38:06.317Z,20.10
2017-07-04T04:40:34.557Z,20.00
2017-07-04T04:43:02.906Z,20.00
2017-07-04T04:45:31.941Z,19.80
2017-07-04T04:48:00.197Z,19.80
2017-07-04T04:50:28.455Z,19.70
2017-07-04T04:52:57.565Z,19.90
2017-07-04T04:55:25.859Z,19.80
2017-07-04T04:57:54.098Z,19.90
2017-07-04T05:00:23.111Z,20.10
2017-07-04T05:02:51.364Z,20.10
2017-07-04T05:05:20.543Z,20.30
2017-07-04T05:07:48.850Z,20.60
2017-07-04T05:10:17.094Z,20.70
2017-07-04T05:12:45.433Z,20.90
2017-07-04T05:15:13.673Z,20.90
2017-07-04T05:17:42.751Z,21.70
2017-07-04T05:20:10.973Z,21.70
2017-07-04T05:22:39.225Z,22.10
2017-07-04T05:25:07.990Z,22.50
2017-07-04T05:27:39.182Z,22.80
2017-07-04T05:30:07.861Z,23.00
2017-07-04T05:32:36.120Z,23.20
2017-07-04T05:35:04.418Z,23.40
2017-07-04T05:37:32.717Z,23.50
2017-07-04T05:40:00.958Z,23.70
2017-07-04T05:42:29.297Z,23.80
2017-07-04T05:44:58.308Z,24.10
2017-07-04T05:47:26.599Z,24.10
2017-07-04T05:49:54.898Z,24.20
2017-07-04T05:52:23.152Z,24.40
2017-07-04T05:54:51.418Z,24.60
2017-07-04T05:57:19.685Z,24.70
2017-07-04T05:59:47.936Z,25.00
2017-07-04T06:02:16.176Z,25.30
2017-07-04T06:04:44.644Z,25.70
2017-07-04T06:07:12.893Z,26.20
2017-07-04T06:09:41.180Z,26.60
2017-07-04T06:12:09.482Z,27.00
2017-07-04T06:14:37.745Z,27.40
2017-07-04T06:17:06.029Z,27.80
2017-07-04T06:19:34.402Z,28.20
2017-07-04T06:22:02.829Z,28.50
2017-07-04T06:24:31.065Z,28.70
2017-07-04T06:26:59.313Z,28.90
2017-07-04T06:29:27.583Z,29.00
2017-07-04T06:31:55.843Z,29.50
2017-07-04T06:34:24.858Z,30.50
2017-07-04T06:36:53.110Z,30.40
2017-07-04T06:39:22.186Z,31.20
2017-07-04T06:41:50.420Z,31.10
2017-07-04T06:44:18.691Z,30.90
2017-07-04T06:46:46.936Z,30.70
2017-07-04T06:49:15.461Z,30.20
2017-07-04T06:51:43.697Z,29.70
2017-07-04T06:54:11.957Z,29.00
2017-07-04T06:56:41.000Z,27.50
2017-07-04T06:59:09.376Z,27.60
2017-07-04T07:01:37.657Z,27.00
2017-07-04T07:04:06.019Z,26.60
2017-07-04T07:06:34.337Z,26.40
2017-07-04T07:09:02.673Z,26.30
2017-07-04T07:11:30.929Z,26.40
2017-07-04T07:13:59.169Z,26.40
2017-07-04T07:16:27.547Z,26.30
2017-07-04T07:18:55.765Z,26.30
2017-07-04T07:21:24.045Z,26.10
2017-07-04T07:23:52.305Z,26.10
2017-07-04T07:26:20.575Z,26.00
2017-07-04T07:28:48.878Z,25.70
2017-07-04T07:31:17.142Z,25.70
2017-07-04T07:33:45.784Z,25.70
2017-07-04T07:36:15.495Z,26.10
2017-07-04T07:38:45.813Z,26.60
2017-07-04T07:41:15.942Z,26.60
2017-07-04T07:43:44.551Z,27.10
2017-07-04T07:46:13.346Z,27.20
2017-07-04T07:48:41.742Z,27.10
2017-07-04T07:51:10.045Z,26.80
2017-07-04T07:53:38.292Z,26.80
2017-07-04T07:56:06.640Z,26.70
2017-07-04T07:58:35.724Z,26.60
2017-07-04T08:01:05.106Z,26.50
2017-07-04T08:03:33.414Z,26.40
2017-07-04T08:06:01.718Z,26.30
2017-07-04T08:08:29.968Z,26.10
2017-07-04T08:10:58.594Z,26.00
2017-07-04T08:13:26.844Z,26.00
2017-07-04T08:15:55.146Z,25.70
2017-07-04T08:18:23.437Z,25.70
2017-07-04T08:20:51.693Z,25.80
2017-07-04T08:23:19.955Z,26.10
2017-07-04T08:25:48.236Z,26.40
2017-07-04T08:28:16.537Z,26.50
2017-07-04T08:30:44.881Z,26.60
2017-07-04T08:33:13.193Z,26.80
2017-07-04T08:35:41.558Z,27.10
2017-07-04T08:38:09.958Z,27.20
2017-07-04T08:40:38.389Z,27.20
2017-07-04T08:43:06.663Z,27.20
2017-07-04T08:45:34.956Z,27.10
2017-07-04T08:48:03.524Z,27.10
2017-07-04T08:50:31.762Z,27.30
2017-07-04T08:53:00.781Z,27.60
2017-07-04T08:55:29.121Z,27.60
2017-07-04T08:57:57.369Z,27.50
2017-07-04T09:00:25.609Z,27.20
2017-07-04T09:02:53.870Z,27.20
2017-07-04T09:05:22.873Z,27.50
2017-07-04T09:07:51.180Z,27.50
2017-07-04T09:10:19.437Z,27.60
2017-07-04T09:12:47.721Z,27.60
2017-07-04T09:15:15.993Z,27.70
2017-07-04T09:17:44.229Z,28.10
2017-07-04T09:20:13.247Z,29.00
2017-07-04T09:22:41.544Z,29.00
2017-07-04T09:25:09.784Z,29.10
2017-07-04T09:27:38.097Z,29.20
2017-07-04T09:30:06.341Z,29.50
2017-07-04T09:32:34.669Z,29.80
2017-07-04T09:35:03.016Z,29.80
2017-07-04T09:37:31.252Z,29.70
2017-07-04T09:40:00.315Z,29.10
2017-07-04T09:42:28.545Z,29.10
2017-07-04T09:44:56.792Z,29.00
2017-07-04T09:47:25.797Z,30.10
2017-07-04T09:49:54.823Z,30.80
2017-07-04T09:52:23.073Z,30.80
2017-07-04T09:54:52.036Z,31.50
2017-07-04T09:57:20.381Z,31.50
2017-07-04T09:59:48.676Z,31.50
2017-07-04T10:02:17.026Z,31.80
2017-07-04T10:04:45.288Z,32.30
2017-07-04T10:07:13.587Z,32.40
2017-07-04T10:09:41.889Z,32.60
2017-07-04T10:12:10.345Z,33.50
2017-07-04T10:14:38.705Z,33.80
2017-07-04T10:17:06.945Z,34.40
2017-07-04T10:19:35.984Z,34.60
2017-07-04T10:22:04.215Z,34.50
2017-07-04T10:24:33.250Z,34.60
2017-07-04T10:27:01.477Z,34.60
2017-07-04T10:29:30.516Z,34.90
2017-07-04T10:31:58.949Z,34.90
2017-07-04T10:34:27.170Z,35.00
2017-07-04T10:36:55.414Z,35.50
2017-07-04T10:39:23.646Z,36.10
2017-07-04T10:41:51.919Z,37.10
2017-07-04T10:44:20.481Z,37.50
2017-07-04T10:46:48.725Z,38.20
2017-07-04T10:49:17.012Z,39.00
2017-07-04T10:51:45.209Z,39.20
2017-07-04T10:54:13.478Z,40.00
2017-07-04T10:56:41.729Z,39.60
2017-07-04T10:59:10.029Z,40.50
2017-07-04T11:01:38.397Z,40.70
2017-07-04T11:04:06.630Z,41.00
2017-07-04T11:06:35.691Z,41.60
2017-07-04T11:09:03.910Z,41.60
2017-07-04T11:11:33.037Z,42.00
2017-07-04T11:14:01.273Z,41.90
2017-07-04T11:16:30.337Z,39.70
2017-07-04T11:18:58.581Z,39.60
2017-07-04T11:21:26.897Z,38.10
2017-07-04T11:23:55.133Z,36.40
2017-07-04T11:26:23.388Z,35.10
2017-07-04T11:28:51.628Z,33.30
2017-07-04T11:31:19.861Z,32.10
2017-07-04T11:33:48.121Z,32.10
2017-07-04T11:36:16.416Z,32.90
2017-07-04T11:38:44.674Z,34.20
2017-07-04T11:41:12.913Z,35.40
2017-07-04T11:43:41.955Z,37.40
2017-07-04T11:46:10.194Z,37.40
2017-07-04T11:48:39.287Z,36.50
2017-07-04T11:51:08.413Z,36.20
2017-07-04T11:53:36.657Z,36.20
2017-07-04T11:56:05.666Z,36.00
2017-07-04T11:58:33.998Z,36.00
2017-07-04T12:01:02.220Z,35.50
2017-07-04T12:03:30.486Z,34.80
2017-07-04T12:05:58.729Z,34.30
2017-07-04T12:08:27.146Z,33.50
2017-07-04T12:10:56.122Z,32.60
2017-07-04T12:13:25.141Z,31.90
2017-07-04T12:15:53.373Z,31.90
2017-07-04T12:18:21.635Z,31.50
2017-07-04T12:20:49.976Z,31.30
2017-07-04T12:23:18.224Z,31.10
2017-07-04T12:25:46.490Z,30.90
2017-07-04T12:28:14.746Z,30.60
2017-07-04T12:30:43.060Z,30.50
2017-07-04T12:33:11.433Z,30.50
2017-07-04T12:35:39.734Z,30.50
2017-07-04T12:38:07.966Z,30.40
2017-07-04T12:40:37.071Z,30.00
2017-07-04T12:43:06.102Z,29.90
2017-07-04T12:45:34.416Z,29.90
2017-07-04T12:48:02.823Z,29.50
2017-07-04T12:50:31.949Z,29.10
2017-07-04T12:53:00.217Z,29.10
2017-07-04T12:55:28.471Z,28.70
2017-07-04T12:57:56.774Z,28.40
2017-07-04T13:00:25.042Z,28.20
2017-07-04T13:02:53.377Z,28.20
2017-07-04T13:05:22.401Z,28.50
2017-07-04T13:07:50.765Z,28.50
2017-07-04T13:10:20.002Z,28.50
2017-07-04T13:12:48.607Z,28.50
2017-07-04T13:15:16.926Z,28.60
2017-07-04T13:17:45.948Z,28.70
2017-07-04T13:20:14.226Z,28.70
2017-07-04T13:22:42.529Z,28.50
2017-07-04T13:25:10.876Z,28.50
2017-07-04T13:27:39.106Z,28.40
2017-07-04T13:30:08.421Z,28.30
2017-07-04T13:32:37.283Z,28.20
2017-07-04T13:35:08.006Z,28.10
2017-07-04T13:37:36.736Z,28.10
2017-07-04T13:40:06.687Z,28.30
2017-07-04T13:42:36.245Z,28.30
2017-07-04T13:45:04.602Z,28.20
2017-07-04T13:47:32.846Z,28.20
2017-07-04T13:50:01.082Z,28.10
2017-07-04T13:52:29.354Z,28.20
2017-07-04T13:54:57.588Z,28.10
2017-07-04T13:57:25.841Z,28.00
2017-07-04T13:59:54.244Z,27.80
2017-07-04T14:02:22.737Z,27.80
2017-07-04T14:04:50.966Z,27.70
2017-07-04T14:07:19.225Z,27.80
2017-07-04T14:09:47.679Z,27.80
2017-07-04T14:12:16.755Z,27.90
2017-07-04T14:14:45.793Z,27.90
2017-07-04T14:17:14.096Z,27.90
2017-07-04T14:19:42.383Z,27.90
2017-07-04T14:22:10.742Z,27.80
2017-07-04T14:24:39.033Z,27.70
2017-07-04T14:27:07.285Z,27.70
2017-07-04T14:29:35.563Z,27.60
2017-07-04T14:32:03.858Z,27.60
2017-07-04T14:34:32.159Z,27.50
2017-07-04T14:37:00.444Z,27.30
2017-07-04T14:39:29.481Z,27.10
2017-07-04T14:41:57.812Z,27.10
2017-07-04T14:44:26.049Z,27.00
2017-07-04T14:46:54.384Z,26.80
2017-07-04T14:49:23.395Z,26.80
2017-07-04T14:51:51.633Z,26.80
2017-07-04T14:54:19.882Z,26.80
2017-07-04T14:56:48.258Z,26.70
2017-07-04T14:59:16.633Z,26.70
2017-07-04T15:01:44.870Z,26.60
2017-07-04T15:04:13.202Z,26.70
2017-07-04T15:06:41.430Z,26.80
2017-07-04T15:09:09.682Z,26.70
2017-07-04T15:11:37.920Z,26.70
2017-07-04T15:14:06.169Z,26.70
2017-07-04T15:16:34.495Z,26.70
2017-07-04T15:19:03.525Z,26.60
2017-07-04T15:21:31.817Z,26.60
2017-07-04T15:24:00.137Z,26.60
2017-07-04T15:26:29.207Z,26.40
2017-07-04T15:28:57.465Z,26.40
2017-07-04T15:31:25.732Z,26.50
2017-07-04T15:33:54.030Z,26.50
2017-07-04T15:36:22.254Z,26.60
2017-07-04T15:38:50.608Z,26.60
2017-07-04T15:41:19.051Z,26.60
2017-07-04T15:43:47.297Z,26.60
2017-07-04T15:46:15.599Z,26.60
2017-07-04T15:48:43.861Z,26.70
2017-07-04T15:51:12.094Z,26.70
2017-07-04T15:53:41.178Z,26.80
2017-07-04T15:56:09.441Z,26.80
2017-07-04T15:58:37.861Z,26.70
2017-07-04T16:01:06.089Z,26.70
2017-07-04T16:03:34.317Z,26.70
2017-07-04T16:06:02.573Z,26.70
2017-07-04T16:08:31.594Z,26.70
2017-07-04T16:10:59.880Z,26.70
2017-07-04T16:13:28.126Z,26.70
2017-07-04T16:15:57.299Z,26.50
2017-07-04T16:18:25.526Z,26.50
2017-07-04T16:20:54.036Z,26.60
2017-07-04T16:23:22.284Z,26.60
2017-07-04T16:25:50.578Z,26.60
2017-07-04T16:28:18.816Z,26.60
2017-07-04T16:30:47.073Z,26.60
2017-07-04T16:33:16.083Z,26.50
2017-07-04T16:35:44.438Z,26.50
2017-07-04T16:38:12.649Z,26.50
2017-07-04T16:40:40.926Z,26.60
2017-07-04T16:43:09.158Z,26.60
2017-07-04T16:45:38.223Z,26.70
2017-07-04T16:48:06.570Z,26.60
2017-07-04T16:50:34.857Z,26.50
2017-07-04T16:53:03.179Z,26.50
2017-07-04T16:55:31.718Z,26.60
2017-07-04T16:58:00.049Z,26.60
2017-07-04T17:00:28.315Z,26.60
2017-07-04T17:02:57.376Z,26.30
2017-07-04T17:05:25.630Z,26.30
2017-07-04T17:07:53.893Z,26.30
2017-07-04T17:10:22.194Z,26.30
2017-07-04T17:12:50.504Z,26.20
2017-07-04T17:15:19.036Z,26.20
2017-07-04T17:17:47.289Z,26.20
2017-07-04T17:20:15.555Z,26.20
2017-07-04T17:22:44.720Z,26.20
2017-07-04T17:25:13.219Z,26.20
2017-07-04T17:27:41.477Z,26.20
2017-07-04T17:30:09.721Z,26.20
2017-07-04T17:32:38.078Z,26.20
2017-07-04T17:35:06.399Z,26.20
2017-07-04T17:37:34.769Z,26.10
2017-07-04T17:40:03.030Z,26.10
2017-07-04T17:42:31.535Z,26.00
2017-07-04T17:44:59.862Z,25.90
2017-07-04T17:47:28.106Z,25.90
2017-07-04T17:49:57.137Z,25.90
2017-07-04T17:52:26.244Z,25.90
2017-07-04T17:54:54.652Z,25.90
2017-07-04T17:57:23.007Z,25.90
2017-07-04T17:59:51.293Z,26.00
2017-07-04T18:02:19.635Z,26.00
2017-07-04T18:04:47.891Z,26.00
2017-07-04T18:07:16.899Z,25.90
2017-07-04T18:09:45.222Z,25.90
2017-07-04T18:12:13.519Z,25.90
2017-07-04T18:14:41.741Z,25.90
2017-07-04T18:17:10.058Z,25.90
2017-07-04T18:19:38.365Z,25.90
2017-07-04T18:22:07.381Z,25.80
2017-07-04T18:24:35.682Z,25.70
2017-07-04T18:27:03.921Z,25.80
2017-07-04T18:29:32.183Z,25.70
2017-07-04T18:32:00.643Z,25.70
2017-07-04T18:34:28.920Z,25.70
2017-07-04T18:36:57.180Z,25.70
2017-07-04T18:39:25.503Z,25.70
2017-07-04T18:41:53.764Z,25.60
2017-07-04T18:44:22.006Z,25.60
2017-07-04T18:46:50.272Z,25.50
2017-07-04T18:49:18.532Z,25.50
2017-07-04T18:51:46.777Z,25.50
2017-07-04T18:54:15.181Z,25.40
2017-07-04T18:56:43.495Z,25.40
2017-07-04T18:59:11.733Z,25.40
2017-07-04T19:01:40.032Z,25.30
2017-07-04T19:04:08.296Z,25.30
2017-07-04T19:06:36.533Z,25.20
2017-07-04T19:09:04.882Z,25.20
2017-07-04T19:11:33.172Z,25.20
2017-07-04T19:14:02.175Z,25.20
2017-07-04T19:16:31.299Z,25.20
2017-07-04T19:18:59.590Z,25.10
2017-07-04T19:21:27.981Z,25.10
2017-07-04T19:23:56.209Z,25.10
2017-07-04T19:26:24.528Z,25.10
2017-07-04T19:28:53.243Z,25.10
2017-07-04T19:31:22.268Z,25.00
2017-07-04T19:33:50.505Z,25.00
2017-07-04T19:36:19.565Z,25.10
2017-07-04T19:38:48.095Z,25.00
2017-07-04T19:41:16.443Z,25.00
2017-07-04T19:43:44.710Z,25.10
2017-07-04T19:46:12.957Z,25.00
2017-07-04T19:48:41.353Z,25.00
2017-07-04T19:51:09.765Z,25.00
2017-07-04T19:53:38.058Z,25.00
2017-07-04T19:56:07.128Z,24.90
2017-07-04T19:58:35.576Z,24.90
2017-07-04T20:01:03.873Z,24.90
2017-07-04T20:03:32.130Z,24.80
2017-07-04T20:06:00.377Z,24.70
2017-07-04T20:08:28.701Z,24.70
2017-07-04T20:10:56.939Z,24.60
2017-07-04T20:13:25.189Z,24.60
2017-07-04T20:15:53.474Z,24.50
2017-07-04T20:18:21.861Z,24.40
2017-07-04T20:20:50.093Z,24.40
2017-07-04T20:23:18.342Z,24.30
2017-07-04T20:25:46.578Z,24.10
2017-07-04T20:28:14.879Z,24.00
2017-07-04T20:30:43.113Z,24.00
2017-07-04T20:33:12.129Z,23.80
2017-07-04T20:35:40.363Z,23.80
2017-07-04T20:38:08.610Z,23.70
2017-07-04T20:40:36.851Z,23.80
2017-07-04T20:43:05.098Z,23.70
2017-07-04T20:45:34.106Z,23.50
2017-07-04T20:48:02.419Z,23.50
2017-07-04T20:50:30.727Z,23.40
2017-07-04T20:52:58.980Z,23.40
2017-07-04T20:55:27.220Z,23.30
2017-07-04T20:57:55.472Z,23.30
2017-07-04T21:00:24.505Z,23.30
2017-07-04T21:02:52.774Z,23.20
2017-07-04T21:05:21.159Z,23.30
2017-07-04T21:07:49.427Z,23.20
2017-07-04T21:10:17.701Z,23.20
2017-07-04T21:12:46.032Z,23.10
2017-07-04T21:15:14.270Z,23.10
2017-07-04T21:17:42.539Z,23.00
2017-07-04T21:20:10.810Z,23.00
2017-07-04T21:22:39.069Z,23.00
2017-07-04T21:25:07.389Z,22.90
2017-07-04T21:27:35.622Z,22.90
2017-07-04T21:30:03.950Z,22.80
2017-07-04T21:32:32.301Z,22.80
2017-07-04T21:35:00.664Z,22.80
2017-07-04T21:37:28.996Z,22.80
2017-07-04T21:39:57.246Z,22.70
2017-07-04T21:42:25.483Z,22.60
2017-07-04T21:44:53.735Z,22.60
2017-07-04T21:47:22.794Z,22.60
2017-07-04T21:49:51.052Z,22.60
2017-07-04T21:52:19.375Z,22.50
2017-07-04T21:54:48.393Z,22.40
2017-07-04T21:57:16.631Z,22.40
2017-07-04T21:59:44.961Z,22.30
2017-07-04T22:02:13.275Z,22.30
2017-07-04T22:04:41.523Z,22.30
2017-07-04T22:07:09.755Z,22.30
2017-07-04T22:09:38.990Z,22.20
2017-07-04T22:12:07.226Z,22.20
2017-07-04T22:14:36.255Z,22.00
2017-07-04T22:17:04.491Z,21.90
2017-07-04T22:19:33.558Z,21.80
2017-07-04T22:22:01.806Z,21.80
2017-07-04T22:24:30.046Z,21.90
2017-07-04T22:26:59.061Z,21.80
2017-07-04T22:29:27.289Z,21.80
2017-07-04T22:31:55.542Z,21.70
2017-07-04T22:34:23.773Z,21.80
2017-07-04T22:36:52.076Z,21.80
2017-07-04T22:39:20.319Z,21.70
2017-07-04T22:41:48.571Z,21.70
2017-07-04T22:44:16.802Z,21.60
2017-07-04T22:46:45.049Z,21.60
2017-07-04T22:49:13.282Z,21.60
2017-07-04T22:51:41.557Z,21.60
2017-07-04T22:54:09.810Z,21.60
2017-07-04T22:56:38.047Z,21.60
2017-07-04T22:59:06.367Z,21.60
2017-07-04T23:01:34.605Z,21.60
2017-07-04T23:04:02.841Z,21.60
2017-07-04T23:06:31.113Z,21.50
2017-07-04T23:08:59.655Z,21.50
2017-07-04T23:11:28.033Z,21.50
2017-07-04T23:13:56.331Z,21.50
2017-07-04T23:16:24.570Z,21.50
2017-07-04T23:18:52.827Z,21.40
2017-07-04T23:21:21.958Z,21.40
2017-07-04T23:23:50.218Z,21.40
2017-07-04T23:26:18.448Z,21.40
2017-07-04T23:28:46.696Z,21.40
2017-07-04T23:31:14.948Z,21.40
2017-07-04T23:33:43.204Z,21.30
2017-07-04T23:36:11.553Z,21.30
2017-07-04T23:38:39.781Z,21.20
2017-07-04T23:41:08.229Z,21.20
2017-07-04T23:43:37.229Z,21.20
2017-07-04T23:46:05.541Z,21.20
2017-07-04T23:48:33.814Z,21.20
2017-07-04T23:51:02.141Z,21.20
2017-07-04T23:53:31.166Z,21.20
2017-07-04T23:55:59.409Z,21.20
2017-07-04T23:58:28.544Z,21.20
